Time,TemperatureF,DewpointF,PressureIn,WindDirection,WindDirectionDegrees,WindSpeedMPH,WindSpeedGustMPH,Humidity,HourlyPrecipIn,Conditions,Clouds,dailyrainin,SoftwareType,DateUTC
2013-03-07 00:05:00,44.7,34.0,31.09,SSW,211,0.0,-999.0,66,-99.99,,,0.00,weatherlink.com 1.10,2013-03-07 06:05:00,
2013-03-07 00:20:00,44.9,36.0,31.09,SSW,211,0.0,-999.0,70,-99.99,,,0.00,weatherlink.com 1.10,2013-03-07 06:20:00,
2013-03-07 00:35:00,44.3,36.0,31.09,SSW,211,0.0,-999.0,72,-99.99,,,0.00,weatherlink.com 1.10,2013-03-07 06:35:00,
2013-03-07 00:50:00,44.2,36.0,31.08,SSW,211,0.0,-999.0,73,-99.99,,,0.00,weatherlink.com 1.10,2013-03-07 06:50:00,
2013-03-07 01:05:00,43.4,36.0,31.08,SSW,211,0.0,-999.0,74,-99.99,,,0.00,weatherlink.com 1.10,2013-03-07 07:05:00,
2013-03-07 01:20:00,43.6,37.0,31.08,SSW,211,0.0,-999.0,76,-99.99,,,0.00,weatherlink.com 1.10,2013-03-07 07:20:00,
2013-03-07 01:35:00,43.4,37.0,31.08,SSW,211,0.0,-999.0,77,-99.99,,,0.00,weatherlink.com 1.10,2013-03-07 07:35:00,
2013-03-07 01:50:00,43.6,37.0,31.08,SSW,211,0.0,-999.0,78,-99.99,,,0.00,weatherlink.com 1.10,2013-03-07 07:50:00,
2013-03-07 02:05:00,43.6,38.0,31.07,SSW,211,0.0,-999.0,79,-99.99,,,0.00,weatherlink.com 1.10,2013-03-07 08:05:00,
2013-03-07 02:21:00,43.1,37.0,31.06,SSW,211,0.0,-999.0,78,-99.99,,,0.00,weatherlink.com 1.10,2013-03-07 08:21:00,
2013-03-07 02:35:00,42.2,36.0,31.05,SSW,211,0.0,-999.0,78,-99.99,,,0.00,weatherlink.com 1.10,2013-03-07 08:35:00,
2013-03-07 02:50:00,41.2,35.0,31.05,SSW,211,0.0,-999.0,79,-99.99,,,0.00,weatherlink.com 1.10,2013-03-07 08:50:00,
2013-03-07 03:05:00,41.3,37.0,31.05,SSW,211,0.0,-999.0,84,-99.99,,,0.00,weatherlink.com 1.10,2013-03-07 09:05:00,
2013-03-07 03:20:00,41.8,37.0,31.04,SSW,211,0.0,-999.0,84,-99.99,,,0.00,weatherlink.com 1.10,2013-03-07 09:20:00,
2013-03-07 03:35:00,41.9,38.0,31.05,SSW,211,0.0,-999.0,85,-99.99,,,0.00,weatherlink.com 1.10,2013-03-07 09:35:00,
2013-03-07 03:50:00,41.4,37.0,31.04,SSW,211,0.0,-999.0,83,-99.99,,,0.00,weatherlink.com 1.10,2013-03-07 09:50:00,
2013-03-07 04:05:00,40.5,36.0,31.04,SSW,211,0.0,-999.0,84,-99.99,,,0.00,weatherlink.com 1.10,2013-03-07 10:05:00,
2013-03-07 04:20:00,39.8,35.0,31.04,SSW,211,0.0,-999.0,84,-99.99,,,0.00,weatherlink.com 1.10,2013-03-07 10:20:00,
2013-03-07 04:36:00,39.4,35.0,31.05,SSW,211,0.0,-999.0,85,-99.99,,,0.00,weatherlink.com 1.10,2013-03-07 10:36:00,
2013-03-07 04:51:00,39.2,35.0,31.05,SSW,211,0.0,-999.0,86,-99.99,,,0.00,weatherlink.com 1.10,2013-03-07 10:51:00,
2013-03-07 05:06:00,39.4,36.0,31.05,SSW,211,0.0,-999.0,87,-99.99,,,0.00,weatherlink.com 1.10,2013-03-07 11:06:00,
2013-03-07 05:21:00,39.2,36.0,31.05,SSW,211,0.0,-999.0,87,-99.99,,,0.00,weatherlink.com 1.10,2013-03-07 11:21:00,
2013-03-07 05:35:00,38.8,35.0,31.05,SSW,211,0.0,-999.0,87,-99.99,,,0.00,weatherlink.com 1.10,2013-03-07 11:35:00,
2013-03-07 05:50:00,39.2,36.0,31.05,SSW,211,0.0,-999.0,88,-99.99,,,0.00,weatherlink.com 1.10,2013-03-07 11:50:00,
2013-03-07 06:05:00,39.0,36.0,31.05,SSW,211,0.0,-999.0,89,-99.99,,,0.00,weatherlink.com 1.10,2013-03-07 12:05:00,
2013-03-07 06:21:00,38.5,35.0,31.06,SSW,211,0.0,-999.0,88,-99.99,,,0.00,weatherlink.com 1.10,2013-03-07 12:21:00,
2013-03-07 06:36:00,39.0,36.0,31.07,SSW,211,0.0,-999.0,89,-99.99,,,0.00,weatherlink.com 1.10,2013-03-07 12:36:00,
2013-03-07 06:51:00,39.5,37.0,31.07,SSW,211,0.0,-999.0,89,-99.99,,,0.00,weatherlink.com 1.10,2013-03-07 12:51:00,
2013-03-07 07:06:00,40.4,38.0,31.08,SSW,211,0.0,-999.0,90,-99.99,,,0.00,weatherlink.com 1.10,2013-03-07 13:06:00,
2013-03-07 07:21:00,42.0,40.0,31.08,SSW,211,0.0,-999.0,91,-99.99,,,0.00,weatherlink.com 1.10,2013-03-07 13:21:00,
2013-03-07 07:36:00,43.7,41.0,31.08,ESE,113,0.0,-999.0,90,-99.99,,,0.00,weatherlink.com 1.10,2013-03-07 13:36:00,
2013-03-07 07:51:00,46.5,44.0,31.09,ESE,113,1.0,-999.0,89,-99.99,,,0.00,weatherlink.com 1.10,2013-03-07 13:51:00,
2013-03-07 08:06:00,48.9,45.0,31.10,ESE,111,0.0,-999.0,86,-99.99,,,0.00,weatherlink.com 1.10,2013-03-07 14:06:00,
2013-03-07 08:21:00,51.1,46.0,31.11,ESE,103,0.0,-999.0,82,-99.99,,,0.00,weatherlink.com 1.10,2013-03-07 14:21:00,
2013-03-07 08:36:00,53.0,47.0,31.11,ESE,102,0.0,-999.0,79,-99.99,,,0.00,weatherlink.com 1.10,2013-03-07 14:36:00,
2013-03-07 08:51:00,54.5,47.0,31.11,SE,138,3.0,-999.0,76,-99.99,,,0.00,weatherlink.com 1.10,2013-03-07 14:51:00,
2013-03-07 09:06:00,55.7,47.0,31.11,SE,140,0.0,-999.0,73,-99.99,,,0.00,weatherlink.com 1.10,2013-03-07 15:06:00,
2013-03-07 09:21:00,57.0,48.0,31.11,ESE,107,2.0,-999.0,71,-99.99,,,0.00,weatherlink.com 1.10,2013-03-07 15:21:00,
2013-03-07 09:36:00,58.2,46.0,31.11,SE,138,3.0,-999.0,65,-99.99,,,0.00,weatherlink.com 1.10,2013-03-07 15:36:00,
2013-03-07 09:51:00,59.3,47.0,31.11,SE,145,0.0,-999.0,63,-99.99,,,0.00,weatherlink.com 1.10,2013-03-07 15:51:00,
2013-03-07 10:06:00,59.4,46.0,31.11,SE,135,3.0,-999.0,61,-99.99,,,0.00,weatherlink.com 1.10,2013-03-07 16:06:00,
2013-03-07 10:36:00,61.2,44.0,31.11,South,169,6.0,-999.0,54,-99.99,,,0.00,weatherlink.com 1.10,2013-03-07 16:36:00,
2013-03-07 10:52:00,62.5,44.0,31.11,SSW,194,10.0,-999.0,52,-99.99,,,0.00,weatherlink.com 1.10,2013-03-07 16:52:00,
2013-03-07 11:07:00,63.1,44.0,31.10,South,182,3.0,-999.0,50,-99.99,,,0.00,weatherlink.com 1.10,2013-03-07 17:07:00,
2013-03-07 11:22:00,64.2,44.0,31.09,SE,136,4.0,-999.0,48,-99.99,,,0.00,weatherlink.com 1.10,2013-03-07 17:22:00,
2013-03-07 11:37:00,65.7,43.0,31.09,SW,227,4.0,-999.0,44,-99.99,,,0.00,weatherlink.com 1.10,2013-03-07 17:37:00,
2013-03-07 11:52:00,65.7,42.0,31.09,SSE,157,5.0,-999.0,42,-99.99,,,0.00,weatherlink.com 1.10,2013-03-07 17:52:00,
2013-03-07 12:07:00,66.3,41.0,31.08,South,185,7.0,-999.0,40,-99.99,,,0.00,weatherlink.com 1.10,2013-03-07 18:07:00,
2013-03-07 12:22:00,67.0,42.0,31.07,SSE,159,12.0,-999.0,41,-99.99,,,0.00,weatherlink.com 1.10,2013-03-07 18:22:00,
2013-03-07 12:37:00,67.3,43.0,31.06,South,182,4.0,-999.0,41,-99.99,,,0.00,weatherlink.com 1.10,2013-03-07 18:37:00,
2013-03-07 13:07:00,68.6,43.0,31.04,SSE,148,6.0,-999.0,39,-99.99,,,0.00,weatherlink.com 1.10,2013-03-07 19:07:00,
2013-03-07 13:22:00,69.9,43.0,31.03,SE,143,7.0,-999.0,38,-99.99,,,0.00,weatherlink.com 1.10,2013-03-07 19:22:00,
2013-03-07 13:37:00,70.2,42.0,31.02,South,178,10.0,-999.0,36,-99.99,,,0.00,weatherlink.com 1.10,2013-03-07 19:37:00,
2013-03-07 13:52:00,70.0,42.0,31.01,South,175,4.0,-999.0,37,-99.99,,,0.00,weatherlink.com 1.10,2013-03-07 19:52:00,
2013-03-07 14:07:00,70.8,45.0,31.01,South,186,4.0,-999.0,39,-99.99,,,0.00,weatherlink.com 1.10,2013-03-07 20:07:00,
2013-03-07 14:22:00,70.5,44.0,31.00,SE,146,2.0,-999.0,38,-99.99,,,0.00,weatherlink.com 1.10,2013-03-07 20:22:00,
2013-03-07 14:37:00,71.1,44.0,31.00,SSE,157,2.0,-999.0,38,-99.99,,,0.00,weatherlink.com 1.10,2013-03-07 20:37:00,
2013-03-07 14:52:00,71.0,45.0,30.98,SSE,157,6.0,-999.0,39,-99.99,,,0.00,weatherlink.com 1.10,2013-03-07 20:52:00,
2013-03-07 15:07:00,71.0,45.0,30.98,East,100,8.0,-999.0,39,-99.99,,,0.00,weatherlink.com 1.10,2013-03-07 21:07:00,
2013-03-07 15:22:00,70.9,45.0,30.97,ESE,109,6.0,-999.0,40,-99.99,,,0.00,weatherlink.com 1.10,2013-03-07 21:22:00,
2013-03-07 15:37:00,71.9,46.0,30.98,SSE,149,6.0,-999.0,40,-99.99,,,0.00,weatherlink.com 1.10,2013-03-07 21:37:00,
2013-03-07 15:52:00,71.7,46.0,30.97,South,180,7.0,-999.0,40,-99.99,,,0.00,weatherlink.com 1.10,2013-03-07 21:52:00,
2013-03-07 16:07:00,71.7,47.0,30.97,SSE,168,7.0,-999.0,42,-99.99,,,0.00,weatherlink.com 1.10,2013-03-07 22:07:00,
2013-03-07 16:22:00,71.4,48.0,30.97,South,172,5.0,-999.0,43,-99.99,,,0.00,weatherlink.com 1.10,2013-03-07 22:22:00,
2013-03-07 16:37:00,70.4,47.0,30.97,SSE,155,1.0,-999.0,43,-99.99,,,0.00,weatherlink.com 1.10,2013-03-07 22:37:00,
2013-03-07 16:52:00,70.2,48.0,30.98,South,178,2.0,-999.0,45,-99.99,,,0.00,weatherlink.com 1.10,2013-03-07 22:52:00,
2013-03-07 17:07:00,69.6,47.0,30.97,South,181,5.0,-999.0,45,-99.99,,,0.00,weatherlink.com 1.10,2013-03-07 23:07:00,
2013-03-07 17:22:00,68.7,48.0,30.97,SSE,155,6.0,-999.0,47,-99.99,,,0.00,weatherlink.com 1.10,2013-03-07 23:22:00,
2013-03-07 17:37:00,67.8,47.0,30.96,South,184,2.0,-999.0,47,-99.99,,,0.00,weatherlink.com 1.10,2013-03-07 23:37:00,
2013-03-07 17:52:00,66.3,46.0,30.98,SE,144,5.0,-999.0,49,-99.99,,,0.00,weatherlink.com 1.10,2013-03-07 23:52:00,
2013-03-07 18:07:00,65.4,47.0,30.98,SSE,148,7.0,-999.0,52,-99.99,,,0.00,weatherlink.com 1.10,2013-03-08 00:07:00,
2013-03-07 18:22:00,64.6,47.0,30.98,SE,146,2.0,-999.0,54,-99.99,,,0.00,weatherlink.com 1.10,2013-03-08 00:22:00,
2013-03-07 18:37:00,63.9,47.0,30.99,SSE,148,0.0,-999.0,55,-99.99,,,0.00,weatherlink.com 1.10,2013-03-08 00:37:00,
2013-03-07 18:52:00,63.0,48.0,31.00,SE,144,4.0,-999.0,58,-99.99,,,0.00,weatherlink.com 1.10,2013-03-08 00:52:00,
2013-03-07 19:07:00,62.4,48.0,31.00,SE,126,3.0,-999.0,60,-99.99,,,0.00,weatherlink.com 1.10,2013-03-08 01:07:00,
2013-03-07 19:22:00,61.6,48.0,31.01,SSE,155,0.0,-999.0,62,-99.99,,,0.00,weatherlink.com 1.10,2013-03-08 01:22:00,
2013-03-07 19:37:00,61.2,48.0,31.02,SE,145,2.0,-999.0,63,-99.99,,,0.00,weatherlink.com 1.10,2013-03-08 01:37:00,
2013-03-07 19:52:00,60.6,49.0,31.01,SSE,148,0.0,-999.0,65,-99.99,,,0.00,weatherlink.com 1.10,2013-03-08 01:52:00,
2013-03-07 20:07:00,59.9,48.0,31.01,SSE,148,3.0,-999.0,66,-99.99,,,0.00,weatherlink.com 1.10,2013-03-08 02:07:00,
2013-03-07 20:22:00,59.4,48.0,31.01,SE,138,2.0,-999.0,67,-99.99,,,0.00,weatherlink.com 1.10,2013-03-08 02:22:00,
2013-03-07 20:37:00,58.9,48.0,31.01,ESE,103,4.0,-999.0,68,-99.99,,,0.00,weatherlink.com 1.10,2013-03-08 02:37:00,
2013-03-07 20:52:00,58.4,48.0,31.01,SSE,149,4.0,-999.0,69,-99.99,,,0.00,weatherlink.com 1.10,2013-03-08 02:52:00,
2013-03-07 21:07:00,57.8,48.0,31.02,SE,146,0.0,-999.0,70,-99.99,,,0.00,weatherlink.com 1.10,2013-03-08 03:07:00,
2013-03-07 21:22:00,57.0,48.0,31.01,SE,140,6.0,-999.0,71,-99.99,,,0.00,weatherlink.com 1.10,2013-03-08 03:22:00,
2013-03-07 21:37:00,56.4,48.0,31.02,SE,139,2.0,-999.0,73,-99.99,,,0.00,weatherlink.com 1.10,2013-03-08 03:37:00,
2013-03-07 21:52:00,55.9,48.0,31.02,ESE,115,5.0,-999.0,74,-99.99,,,0.00,weatherlink.com 1.10,2013-03-08 03:52:00,
2013-03-07 22:07:00,55.4,48.0,31.02,SE,132,1.0,-999.0,75,-99.99,,,0.00,weatherlink.com 1.10,2013-03-08 04:07:00,
2013-03-07 22:22:00,55.0,48.0,31.02,SE,138,0.0,-999.0,76,-99.99,,,0.00,weatherlink.com 1.10,2013-03-08 04:22:00,
2013-03-07 22:37:00,55.0,48.0,31.02,SE,138,0.0,-999.0,76,-99.99,,,0.00,weatherlink.com 1.10,2013-03-08 04:37:00,
2013-03-07 22:52:00,54.7,48.0,31.02,SSE,147,3.0,-999.0,77,-99.99,,,0.00,weatherlink.com 1.10,2013-03-08 04:52:00,
2013-03-07 23:07:00,54.6,48.0,31.01,SSE,147,2.0,-999.0,78,-99.99,,,0.00,weatherlink.com 1.10,2013-03-08 05:07:00,
2013-03-07 23:22:00,54.4,48.0,31.01,SE,140,4.0,-999.0,78,-99.99,,,0.00,weatherlink.com 1.10,2013-03-08 05:22:00,
2013-03-07 23:37:00,54.1,48.0,31.01,SSE,154,3.0,-999.0,79,-99.99,,,0.00,weatherlink.com 1.10,2013-03-08 05:37:00,
2013-03-07 23:52:00,54.0,48.0,31.00,SE,144,0.0,-999.0,80,-99.99,,,0.00,weatherlink.com 1.10,2013-03-08 05:52:00,